sensor_id;sensor_type;location;lat;lon;timestamp;P1;durP1;ratioP1;P2;durP2;ratioP2
12880;SDS011;6508;53.786;9.996;2023-04-15T00:02:17;6.78;;;5.80;;
12880;SDS011;6508;53.786;9.996;2023-04-15T00:04:46;7.40;;;5.93;;
12880;SDS011;6508;53.786;9.996;2023-04-15T00:07:14;7.63;;;6.82;;
12880;SDS011;6508;53.786;9.996;2023-04-15T00:09:43;9.18;;;6.70;;
12880;SDS011;6508;53.786;9.996;2023-04-15T00:12:12;7.35;;;6.45;;
12880;SDS011;6508;53.786;9.996;2023-04-15T00:14:40;10.27;;;6.65;;
12880;SDS011;6508;53.786;9.996;2023-04-15T00:17:09;9.95;;;7.47;;
12880;SDS011;6508;53.786;9.996;2023-04-15T00:19:37;8.52;;;6.57;;
12880;SDS011;6508;53.786;9.996;2023-04-15T00:22:06;12.18;;;7.35;;
12880;SDS011;6508;53.786;9.996;2023-04-15T00:24:34;9.07;;;7.38;;
12880;SDS011;6508;53.786;9.996;2023-04-15T00:27:02;11.90;;;7.70;;
12880;SDS011;6508;53.786;9.996;2023-04-15T00:29:30;11.63;;;7.50;;
12880;SDS011;6508;53.786;9.996;2023-04-15T00:31:58;10.57;;;8.48;;
12880;SDS011;6508;53.786;9.996;2023-04-15T00:34:29;10.73;;;8.23;;
12880;SDS011;6508;53.786;9.996;2023-04-15T00:36:57;11.57;;;8.48;;
12880;SDS011;6508;53.786;9.996;2023-04-15T00:39:25;12.77;;;8.55;;
12880;SDS011;6508;53.786;9.996;2023-04-15T00:41:53;10.77;;;8.48;;
12880;SDS011;6508;53.786;9.996;2023-04-15T00:44:22;13.48;;;8.90;;
12880;SDS011;6508;53.786;9.996;2023-04-15T00:46:52;10.23;;;8.43;;
12880;SDS011;6508;53.786;9.996;2023-04-15T00:49:20;11.60;;;8.80;;
12880;SDS011;6508;53.786;9.996;2023-04-15T00:51:51;10.07;;;7.93;;
12880;SDS011;6508;53.786;9.996;2023-04-15T00:54:18;10.57;;;7.90;;
12880;SDS011;6508;53.786;9.996;2023-04-15T00:56:46;12.95;;;8.43;;
12880;SDS011;6508;53.786;9.996;2023-04-15T00:59:14;12.15;;;8.70;;
12880;SDS011;6508;53.786;9.996;2023-04-15T01:01:44;14.38;;;8.63;;
12880;SDS011;6508;53.786;9.996;2023-04-15T01:04:12;12.27;;;8.32;;
12880;SDS011;6508;53.786;9.996;2023-04-15T01:06:40;13.10;;;8.52;;
12880;SDS011;6508;53.786;9.996;2023-04-15T01:09:10;11.48;;;7.88;;
12880;SDS011;6508;53.786;9.996;2023-04-15T01:11:38;10.65;;;7.88;;
12880;SDS011;6508;53.786;9.996;2023-04-15T01:14:07;11.85;;;8.15;;
12880;SDS011;6508;53.786;9.996;2023-04-15T01:16:36;13.98;;;8.93;;
12880;SDS011;6508;53.786;9.996;2023-04-15T01:19:05;14.77;;;9.70;;
12880;SDS011;6508;53.786;9.996;2023-04-15T01:21:35;13.23;;;9.05;;
12880;SDS011;6508;53.786;9.996;2023-04-15T01:24:03;12.95;;;8.20;;
12880;SDS011;6508;53.786;9.996;2023-04-15T01:26:38;10.82;;;7.85;;
12880;SDS011;6508;53.786;9.996;2023-04-15T01:29:07;12.15;;;8.70;;
12880;SDS011;6508;53.786;9.996;2023-04-15T01:31:34;12.07;;;8.25;;
12880;SDS011;6508;53.786;9.996;2023-04-15T01:34:21;13.73;;;9.65;;
12880;SDS011;6508;53.786;9.996;2023-04-15T01:37:11;14.07;;;8.57;;
12880;SDS011;6508;53.786;9.996;2023-04-15T01:39:38;10.85;;;7.88;;
12880;SDS011;6508;53.786;9.996;2023-04-15T01:42:07;12.68;;;8.40;;
12880;SDS011;6508;53.786;9.996;2023-04-15T01:44:35;13.75;;;8.48;;
12880;SDS011;6508;53.786;9.996;2023-04-15T01:47:03;11.77;;;7.85;;
12880;SDS011;6508;53.786;9.996;2023-04-15T01:49:31;15.32;;;9.13;;
12880;SDS011;6508;53.786;9.996;2023-04-15T01:51:59;11.15;;;7.70;;
12880;SDS011;6508;53.786;9.996;2023-04-15T01:54:27;11.88;;;7.85;;
12880;SDS011;6508;53.786;9.996;2023-04-15T01:56:55;12.52;;;8.32;;
12880;SDS011;6508;53.786;9.996;2023-04-15T01:59:24;12.70;;;8.27;;
12880;SDS011;6508;53.786;9.996;2023-04-15T02:01:53;10.25;;;7.85;;
12880;SDS011;6508;53.786;9.996;2023-04-15T02:04:21;10.68;;;8.02;;
12880;SDS011;6508;53.786;9.996;2023-04-15T02:06:49;13.95;;;7.53;;
12880;SDS011;6508;53.786;9.996;2023-04-15T02:09:17;13.40;;;8.45;;
12880;SDS011;6508;53.786;9.996;2023-04-15T02:11:45;13.50;;;8.20;;
12880;SDS011;6508;53.786;9.996;2023-04-15T02:14:13;16.35;;;8.57;;
12880;SDS011;6508;53.786;9.996;2023-04-15T02:16:42;15.27;;;8.38;;
12880;SDS011;6508;53.786;9.996;2023-04-15T02:19:10;15.85;;;8.30;;
12880;SDS011;6508;53.786;9.996;2023-04-15T02:21:37;13.55;;;8.85;;
12880;SDS011;6508;53.786;9.996;2023-04-15T02:24:05;17.83;;;8.85;;
12880;SDS011;6508;53.786;9.996;2023-04-15T02:26:33;15.52;;;9.18;;
12880;SDS011;6508;53.786;9.996;2023-04-15T02:29:01;23.88;;;11.32;;
12880;SDS011;6508;53.786;9.996;2023-04-15T02:31:29;20.00;;;9.80;;
12880;SDS011;6508;53.786;9.996;2023-04-15T02:34:00;21.02;;;10.48;;
12880;SDS011;6508;53.786;9.996;2023-04-15T02:36:30;19.30;;;10.00;;
12880;SDS011;6508;53.786;9.996;2023-04-15T02:38:58;21.92;;;10.35;;
12880;SDS011;6508;53.786;9.996;2023-04-15T02:41:27;21.90;;;11.15;;
12880;SDS011;6508;53.786;9.996;2023-04-15T02:43:57;21.77;;;10.80;;
12880;SDS011;6508;53.786;9.996;2023-04-15T02:46:24;23.95;;;11.20;;
12880;SDS011;6508;53.786;9.996;2023-04-15T02:48:52;25.27;;;12.15;;
12880;SDS011;6508;53.786;9.996;2023-04-15T02:51:24;26.58;;;12.75;;
12880;SDS011;6508;53.786;9.996;2023-04-15T02:53:51;22.73;;;12.27;;
12880;SDS011;6508;53.786;9.996;2023-04-15T02:56:19;28.42;;;12.30;;
12880;SDS011;6508;53.786;9.996;2023-04-15T02:58:51;31.25;;;13.90;;
12880;SDS011;6508;53.786;9.996;2023-04-15T03:01:22;30.73;;;13.98;;
12880;SDS011;6508;53.786;9.996;2023-04-15T03:03:51;31.38;;;13.75;;
12880;SDS011;6508;53.786;9.996;2023-04-15T03:06:19;33.70;;;14.25;;
12880;SDS011;6508;53.786;9.996;2023-04-15T03:08:50;31.23;;;14.75;;
12880;SDS011;6508;53.786;9.996;2023-04-15T03:11:18;36.28;;;15.80;;
12880;SDS011;6508;53.786;9.996;2023-04-15T03:13:46;40.83;;;16.23;;
12880;SDS011;6508;53.786;9.996;2023-04-15T03:16:27;42.55;;;16.45;;
12880;SDS011;6508;53.786;9.996;2023-04-15T03:18:56;39.03;;;16.67;;
12880;SDS011;6508;53.786;9.996;2023-04-15T03:21:24;41.65;;;16.98;;
12880;SDS011;6508;53.786;9.996;2023-04-15T03:23:53;44.80;;;18.65;;
12880;SDS011;6508;53.786;9.996;2023-04-15T03:26:23;41.65;;;18.08;;
12880;SDS011;6508;53.786;9.996;2023-04-15T03:28:55;45.65;;;18.27;;
12880;SDS011;6508;53.786;9.996;2023-04-15T03:31:24;47.60;;;18.15;;
12880;SDS011;6508;53.786;9.996;2023-04-15T03:33:52;45.08;;;18.90;;
12880;SDS011;6508;53.786;9.996;2023-04-15T03:36:19;45.80;;;19.83;;
12880;SDS011;6508;53.786;9.996;2023-04-15T03:38:47;51.80;;;20.00;;
12880;SDS011;6508;53.786;9.996;2023-04-15T03:41:17;44.50;;;18.80;;
12880;SDS011;6508;53.786;9.996;2023-04-15T03:43:44;54.50;;;20.15;;
12880;SDS011;6508;53.786;9.996;2023-04-15T03:46:12;56.90;;;21.08;;
12880;SDS011;6508;53.786;9.996;2023-04-15T03:48:40;51.45;;;20.30;;
12880;SDS011;6508;53.786;9.996;2023-04-15T03:51:07;57.35;;;21.33;;
12880;SDS011;6508;53.786;9.996;2023-04-15T03:53:35;50.83;;;20.40;;
12880;SDS011;6508;53.786;9.996;2023-04-15T03:56:03;57.17;;;21.52;;
12880;SDS011;6508;53.786;9.996;2023-04-15T03:58:33;56.05;;;21.27;;
12880;SDS011;6508;53.786;9.996;2023-04-15T04:01:01;50.10;;;22.08;;
12880;SDS011;6508;53.786;9.996;2023-04-15T04:03:28;57.17;;;20.65;;
12880;SDS011;6508;53.786;9.996;2023-04-15T04:05:57;57.10;;;22.27;;
12880;SDS011;6508;53.786;9.996;2023-04-15T04:08:25;55.65;;;22.48;;
12880;SDS011;6508;53.786;9.996;2023-04-15T04:10:53;62.63;;;23.55;;
12880;SDS011;6508;53.786;9.996;2023-04-15T04:13:20;65.97;;;24.08;;
12880;SDS011;6508;53.786;9.996;2023-04-15T04:15:49;73.47;;;24.38;;
12880;SDS011;6508;53.786;9.996;2023-04-15T04:18:17;57.22;;;22.38;;
12880;SDS011;6508;53.786;9.996;2023-04-15T04:20:45;58.53;;;23.52;;
12880;SDS011;6508;53.786;9.996;2023-04-15T04:23:13;58.80;;;22.75;;
12880;SDS011;6508;53.786;9.996;2023-04-15T04:25:41;64.63;;;23.30;;
12880;SDS011;6508;53.786;9.996;2023-04-15T04:28:09;57.63;;;22.90;;
12880;SDS011;6508;53.786;9.996;2023-04-15T04:30:36;59.88;;;23.65;;
12880;SDS011;6508;53.786;9.996;2023-04-15T04:33:05;55.45;;;23.40;;
12880;SDS011;6508;53.786;9.996;2023-04-15T04:35:34;61.20;;;24.88;;
12880;SDS011;6508;53.786;9.996;2023-04-15T04:38:03;62.85;;;23.65;;
12880;SDS011;6508;53.786;9.996;2023-04-15T04:40:31;63.17;;;24.42;;
12880;SDS011;6508;53.786;9.996;2023-04-15T04:42:59;65.53;;;25.85;;
12880;SDS011;6508;53.786;9.996;2023-04-15T04:45:27;68.93;;;25.23;;
12880;SDS011;6508;53.786;9.996;2023-04-15T04:47:56;74.10;;;26.08;;
12880;SDS011;6508;53.786;9.996;2023-04-15T04:50:25;71.28;;;25.25;;
12880;SDS011;6508;53.786;9.996;2023-04-15T04:52:53;60.60;;;25.02;;
12880;SDS011;6508;53.786;9.996;2023-04-15T04:55:20;65.80;;;26.92;;
12880;SDS011;6508;53.786;9.996;2023-04-15T04:57:49;71.13;;;25.23;;
12880;SDS011;6508;53.786;9.996;2023-04-15T05:00:17;66.40;;;27.23;;
12880;SDS011;6508;53.786;9.996;2023-04-15T05:02:45;59.80;;;26.15;;
12880;SDS011;6508;53.786;9.996;2023-04-15T05:05:14;62.70;;;25.52;;
12880;SDS011;6508;53.786;9.996;2023-04-15T05:07:43;62.65;;;24.95;;
12880;SDS011;6508;53.786;9.996;2023-04-15T05:10:11;61.55;;;24.55;;
12880;SDS011;6508;53.786;9.996;2023-04-15T05:12:41;65.72;;;25.98;;
12880;SDS011;6508;53.786;9.996;2023-04-15T05:15:09;66.38;;;26.65;;
12880;SDS011;6508;53.786;9.996;2023-04-15T05:17:37;65.72;;;27.30;;
12880;SDS011;6508;53.786;9.996;2023-04-15T05:20:05;67.57;;;27.98;;
12880;SDS011;6508;53.786;9.996;2023-04-15T05:22:35;70.03;;;27.75;;
12880;SDS011;6508;53.786;9.996;2023-04-15T05:25:05;73.18;;;27.23;;
12880;SDS011;6508;53.786;9.996;2023-04-15T05:27:33;78.20;;;28.77;;
12880;SDS011;6508;53.786;9.996;2023-04-15T05:30:00;72.03;;;28.30;;
12880;SDS011;6508;53.786;9.996;2023-04-15T05:32:28;76.43;;;27.98;;
12880;SDS011;6508;53.786;9.996;2023-04-15T05:34:56;80.13;;;31.08;;
12880;SDS011;6508;53.786;9.996;2023-04-15T05:37:24;76.05;;;30.23;;
12880;SDS011;6508;53.786;9.996;2023-04-15T05:39:52;83.72;;;30.65;;
12880;SDS011;6508;53.786;9.996;2023-04-15T05:42:21;82.82;;;31.17;;
12880;SDS011;6508;53.786;9.996;2023-04-15T05:44:49;79.50;;;30.33;;
12880;SDS011;6508;53.786;9.996;2023-04-15T05:47:17;82.05;;;31.75;;
12880;SDS011;6508;53.786;9.996;2023-04-15T05:49:45;82.07;;;32.53;;
12880;SDS011;6508;53.786;9.996;2023-04-15T05:52:13;83.68;;;30.75;;
12880;SDS011;6508;53.786;9.996;2023-04-15T05:54:40;88.95;;;31.90;;
12880;SDS011;6508;53.786;9.996;2023-04-15T05:57:08;87.07;;;32.95;;
12880;SDS011;6508;53.786;9.996;2023-04-15T05:59:37;87.95;;;33.95;;
12880;SDS011;6508;53.786;9.996;2023-04-15T06:02:07;91.85;;;35.08;;
12880;SDS011;6508;53.786;9.996;2023-04-15T06:04:36;90.00;;;34.03;;
12880;SDS011;6508;53.786;9.996;2023-04-15T06:07:04;82.82;;;33.70;;
12880;SDS011;6508;53.786;9.996;2023-04-15T06:09:32;94.28;;;35.10;;
12880;SDS011;6508;53.786;9.996;2023-04-15T06:12:00;104.28;;;35.35;;
12880;SDS011;6508;53.786;9.996;2023-04-15T06:14:28;92.63;;;34.70;;
12880;SDS011;6508;53.786;9.996;2023-04-15T06:16:57;91.45;;;35.75;;
12880;SDS011;6508;53.786;9.996;2023-04-15T06:19:25;92.35;;;34.85;;
12880;SDS011;6508;53.786;9.996;2023-04-15T06:21:53;98.85;;;36.40;;
12880;SDS011;6508;53.786;9.996;2023-04-15T06:24:21;91.95;;;34.72;;
12880;SDS011;6508;53.786;9.996;2023-04-15T06:26:48;105.00;;;36.28;;
12880;SDS011;6508;53.786;9.996;2023-04-15T06:29:16;106.65;;;36.90;;
12880;SDS011;6508;53.786;9.996;2023-04-15T06:31:45;101.35;;;37.38;;
12880;SDS011;6508;53.786;9.996;2023-04-15T06:34:15;109.70;;;36.13;;
12880;SDS011;6508;53.786;9.996;2023-04-15T06:36:42;94.53;;;36.47;;
12880;SDS011;6508;53.786;9.996;2023-04-15T06:39:10;101.22;;;38.10;;
12880;SDS011;6508;53.786;9.996;2023-04-15T06:41:39;106.90;;;37.92;;
12880;SDS011;6508;53.786;9.996;2023-04-15T06:44:07;110.45;;;38.92;;
12880;SDS011;6508;53.786;9.996;2023-04-15T06:46:35;101.90;;;37.25;;
12880;SDS011;6508;53.786;9.996;2023-04-15T06:49:03;95.82;;;38.83;;
12880;SDS011;6508;53.786;9.996;2023-04-15T06:51:33;94.95;;;35.80;;
12880;SDS011;6508;53.786;9.996;2023-04-15T06:54:01;105.35;;;38.22;;
12880;SDS011;6508;53.786;9.996;2023-04-15T06:56:31;103.93;;;39.40;;
12880;SDS011;6508;53.786;9.996;2023-04-15T06:58:58;104.38;;;39.55;;
12880;SDS011;6508;53.786;9.996;2023-04-15T07:01:27;105.35;;;39.92;;
12880;SDS011;6508;53.786;9.996;2023-04-15T07:03:55;100.07;;;40.83;;
12880;SDS011;6508;53.786;9.996;2023-04-15T07:06:23;109.60;;;41.17;;
12880;SDS011;6508;53.786;9.996;2023-04-15T07:08:52;103.80;;;37.80;;
12880;SDS011;6508;53.786;9.996;2023-04-15T07:11:21;104.20;;;39.30;;
12880;SDS011;6508;53.786;9.996;2023-04-15T07:13:49;105.20;;;40.47;;
12880;SDS011;6508;53.786;9.996;2023-04-15T07:16:17;101.38;;;40.63;;
12880;SDS011;6508;53.786;9.996;2023-04-15T07:18:45;117.90;;;41.78;;
12880;SDS011;6508;53.786;9.996;2023-04-15T07:21:12;92.13;;;40.78;;
12880;SDS011;6508;53.786;9.996;2023-04-15T07:23:40;111.97;;;42.42;;
12880;SDS011;6508;53.786;9.996;2023-04-15T07:26:09;109.38;;;41.10;;
12880;SDS011;6508;53.786;9.996;2023-04-15T07:28:37;113.10;;;42.88;;
12880;SDS011;6508;53.786;9.996;2023-04-15T07:31:06;113.53;;;43.83;;
12880;SDS011;6508;53.786;9.996;2023-04-15T07:33:33;111.65;;;39.97;;
12880;SDS011;6508;53.786;9.996;2023-04-15T07:36:02;112.25;;;42.58;;
12880;SDS011;6508;53.786;9.996;2023-04-15T07:38:30;120.05;;;43.30;;
12880;SDS011;6508;53.786;9.996;2023-04-15T07:40:58;121.68;;;42.15;;
12880;SDS011;6508;53.786;9.996;2023-04-15T07:43:27;119.03;;;41.45;;
12880;SDS011;6508;53.786;9.996;2023-04-15T07:45:55;126.68;;;43.78;;
12880;SDS011;6508;53.786;9.996;2023-04-15T07:48:23;121.18;;;43.53;;
12880;SDS011;6508;53.786;9.996;2023-04-15T07:50:51;145.13;;;43.13;;
12880;SDS011;6508;53.786;9.996;2023-04-15T07:53:19;118.40;;;44.03;;
12880;SDS011;6508;53.786;9.996;2023-04-15T07:55:47;135.98;;;43.28;;
12880;SDS011;6508;53.786;9.996;2023-04-15T07:58:14;111.45;;;42.38;;
12880;SDS011;6508;53.786;9.996;2023-04-15T08:00:43;120.68;;;43.67;;
12880;SDS011;6508;53.786;9.996;2023-04-15T08:03:12;126.95;;;43.97;;
12880;SDS011;6508;53.786;9.996;2023-04-15T08:05:41;126.90;;;43.67;;
12880;SDS011;6508;53.786;9.996;2023-04-15T08:08:08;116.57;;;43.45;;
12880;SDS011;6508;53.786;9.996;2023-04-15T08:10:36;129.57;;;45.25;;
12880;SDS011;6508;53.786;9.996;2023-04-15T08:13:04;127.38;;;43.25;;
12880;SDS011;6508;53.786;9.996;2023-04-15T08:15:33;131.52;;;43.50;;
12880;SDS011;6508;53.786;9.996;2023-04-15T08:18:02;131.07;;;44.42;;
12880;SDS011;6508;53.786;9.996;2023-04-15T08:20:30;126.07;;;42.67;;
12880;SDS011;6508;53.786;9.996;2023-04-15T08:22:58;121.00;;;44.53;;
12880;SDS011;6508;53.786;9.996;2023-04-15T08:25:25;127.43;;;44.78;;
12880;SDS011;6508;53.786;9.996;2023-04-15T08:27:54;124.18;;;42.80;;
12880;SDS011;6508;53.786;9.996;2023-04-15T08:30:22;123.07;;;46.55;;
12880;SDS011;6508;53.786;9.996;2023-04-15T08:32:50;124.90;;;43.22;;
12880;SDS011;6508;53.786;9.996;2023-04-15T08:35:19;119.75;;;43.63;;
12880;SDS011;6508;53.786;9.996;2023-04-15T08:37:48;112.57;;;42.35;;
12880;SDS011;6508;53.786;9.996;2023-04-15T08:40:15;114.13;;;41.90;;
12880;SDS011;6508;53.786;9.996;2023-04-15T08:42:43;114.65;;;42.42;;
12880;SDS011;6508;53.786;9.996;2023-04-15T08:45:14;97.68;;;39.47;;
12880;SDS011;6508;53.786;9.996;2023-04-15T08:47:43;113.13;;;42.03;;
12880;SDS011;6508;53.786;9.996;2023-04-15T08:50:12;112.68;;;42.42;;
12880;SDS011;6508;53.786;9.996;2023-04-15T08:52:42;117.38;;;41.22;;
12880;SDS011;6508;53.786;9.996;2023-04-15T08:55:10;118.10;;;41.40;;
12880;SDS011;6508;53.786;9.996;2023-04-15T08:57:39;112.45;;;40.78;;
12880;SDS011;6508;53.786;9.996;2023-04-15T09:00:08;117.65;;;40.10;;
12880;SDS011;6508;53.786;9.996;2023-04-15T09:02:36;109.20;;;41.47;;
12880;SDS011;6508;53.786;9.996;2023-04-15T09:05:05;110.10;;;43.15;;
12880;SDS011;6508;53.786;9.996;2023-04-15T09:07:34;112.35;;;41.10;;
12880;SDS011;6508;53.786;9.996;2023-04-15T09:10:03;106.82;;;44.03;;
12880;SDS011;6508;53.786;9.996;2023-04-15T09:12:33;108.03;;;42.47;;
12880;SDS011;6508;53.786;9.996;2023-04-15T09:15:01;100.93;;;40.25;;
12880;SDS011;6508;53.786;9.996;2023-04-15T09:17:29;104.72;;;40.83;;
12880;SDS011;6508;53.786;9.996;2023-04-15T09:20:09;98.85;;;42.17;;
12880;SDS011;6508;53.786;9.996;2023-04-15T09:22:38;93.47;;;41.28;;
12880;SDS011;6508;53.786;9.996;2023-04-15T09:27:55;82.15;;;39.90;;
12880;SDS011;6508;53.786;9.996;2023-04-15T09:30:24;76.30;;;37.72;;
12880;SDS011;6508;53.786;9.996;2023-04-15T09:32:52;64.40;;;33.70;;
12880;SDS011;6508;53.786;9.996;2023-04-15T09:35:22;63.13;;;34.30;;
12880;SDS011;6508;53.786;9.996;2023-04-15T09:37:51;58.45;;;33.60;;
12880;SDS011;6508;53.786;9.996;2023-04-15T09:40:34;52.53;;;31.42;;
12880;SDS011;6508;53.786;9.996;2023-04-15T09:43:02;57.00;;;30.98;;
12880;SDS011;6508;53.786;9.996;2023-04-15T09:45:32;49.25;;;28.27;;
12880;SDS011;6508;53.786;9.996;2023-04-15T09:48:13;50.25;;;29.75;;
12880;SDS011;6508;53.786;9.996;2023-04-15T09:50:42;44.28;;;27.85;;
12880;SDS011;6508;53.786;9.996;2023-04-15T09:53:10;42.83;;;26.50;;
12880;SDS011;6508;53.786;9.996;2023-04-15T09:55:45;37.00;;;24.92;;
12880;SDS011;6508;53.786;9.996;2023-04-15T09:58:19;38.92;;;23.75;;
12880;SDS011;6508;53.786;9.996;2023-04-15T10:00:48;34.10;;;23.65;;
12880;SDS011;6508;53.786;9.996;2023-04-15T10:03:18;32.85;;;23.48;;
12880;SDS011;6508;53.786;9.996;2023-04-15T10:05:48;31.05;;;22.08;;
12880;SDS011;6508;53.786;9.996;2023-04-15T10:08:18;30.45;;;21.05;;
12880;SDS011;6508;53.786;9.996;2023-04-15T10:10:48;26.48;;;20.40;;
12880;SDS011;6508;53.786;9.996;2023-04-15T10:13:17;28.73;;;20.83;;
12880;SDS011;6508;53.786;9.996;2023-04-15T10:15:48;30.45;;;20.63;;
12880;SDS011;6508;53.786;9.996;2023-04-15T10:18:18;26.15;;;19.83;;
12880;SDS011;6508;53.786;9.996;2023-04-15T10:20:46;21.73;;;18.25;;
12880;SDS011;6508;53.786;9.996;2023-04-15T10:23:15;24.52;;;19.02;;
12880;SDS011;6508;53.786;9.996;2023-04-15T10:25:44;24.95;;;19.02;;
12880;SDS011;6508;53.786;9.996;2023-04-15T10:28:14;24.15;;;18.88;;
12880;SDS011;6508;53.786;9.996;2023-04-15T10:30:42;25.00;;;18.83;;
12880;SDS011;6508;53.786;9.996;2023-04-15T10:33:10;22.85;;;18.13;;
12880;SDS011;6508;53.786;9.996;2023-04-15T10:35:39;24.25;;;18.02;;
12880;SDS011;6508;53.786;9.996;2023-04-15T10:41:11;19.95;;;16.50;;
12880;SDS011;6508;53.786;9.996;2023-04-15T10:43:46;17.98;;;15.77;;
12880;SDS011;6508;53.786;9.996;2023-04-15T10:46:18;17.42;;;15.60;;
12880;SDS011;6508;53.786;9.996;2023-04-15T10:48:49;18.48;;;16.58;;
12880;SDS011;6508;53.786;9.996;2023-04-15T10:51:27;19.85;;;17.05;;
12880;SDS011;6508;53.786;9.996;2023-04-15T10:53:57;17.13;;;15.32;;
12880;SDS011;6508;53.786;9.996;2023-04-15T10:56:27;16.50;;;14.93;;
12880;SDS011;6508;53.786;9.996;2023-04-15T10:58:58;18.20;;;16.02;;
12880;SDS011;6508;53.786;9.996;2023-04-15T11:07:37;17.15;;;14.43;;
12880;SDS011;6508;53.786;9.996;2023-04-15T11:13:25;15.30;;;13.82;;
12880;SDS011;6508;53.786;9.996;2023-04-15T11:15:56;13.77;;;12.40;;
12880;SDS011;6508;53.786;9.996;2023-04-15T11:18:28;12.65;;;11.45;;
12880;SDS011;6508;53.786;9.996;2023-04-15T11:20:57;13.25;;;11.95;;
12880;SDS011;6508;53.786;9.996;2023-04-15T11:23:27;11.55;;;10.55;;
12880;SDS011;6508;53.786;9.996;2023-04-15T11:25:57;11.35;;;10.35;;
12880;SDS011;6508;53.786;9.996;2023-04-15T11:28:26;11.07;;;10.10;;
12880;SDS011;6508;53.786;9.996;2023-04-15T11:30:54;12.15;;;11.05;;
12880;SDS011;6508;53.786;9.996;2023-04-15T11:33:24;12.48;;;11.23;;
12880;SDS011;6508;53.786;9.996;2023-04-15T11:35:52;11.50;;;10.50;;
12880;SDS011;6508;53.786;9.996;2023-04-15T11:38:20;12.23;;;11.02;;
12880;SDS011;6508;53.786;9.996;2023-04-15T11:40:49;10.48;;;9.63;;
12880;SDS011;6508;53.786;9.996;2023-04-15T11:43:18;11.38;;;10.35;;
12880;SDS011;6508;53.786;9.996;2023-04-15T11:45:47;11.20;;;10.20;;
12880;SDS011;6508;53.786;9.996;2023-04-15T11:48:20;12.85;;;11.75;;
12880;SDS011;6508;53.786;9.996;2023-04-15T11:50:52;12.65;;;11.43;;
12880;SDS011;6508;53.786;9.996;2023-04-15T11:53:20;11.63;;;10.52;;
12880;SDS011;6508;53.786;9.996;2023-04-15T11:55:50;12.07;;;10.95;;
12880;SDS011;6508;53.786;9.996;2023-04-15T11:58:19;11.50;;;10.43;;
12880;SDS011;6508;53.786;9.996;2023-04-15T12:00:49;10.93;;;10.02;;
12880;SDS011;6508;53.786;9.996;2023-04-15T12:03:21;11.32;;;10.32;;
12880;SDS011;6508;53.786;9.996;2023-04-15T12:08:49;10.68;;;9.80;;
12880;SDS011;6508;53.786;9.996;2023-04-15T12:11:18;10.13;;;9.43;;
12880;SDS011;6508;53.786;9.996;2023-04-15T12:13:46;10.38;;;9.38;;
12880;SDS011;6508;53.786;9.996;2023-04-15T12:16:15;10.68;;;9.57;;
12880;SDS011;6508;53.786;9.996;2023-04-15T12:18:46;11.00;;;9.95;;
12880;SDS011;6508;53.786;9.996;2023-04-15T12:21:14;10.77;;;9.80;;
12880;SDS011;6508;53.786;9.996;2023-04-15T12:23:47;11.07;;;10.18;;
12880;SDS011;6508;53.786;9.996;2023-04-15T12:26:16;10.77;;;9.88;;
12880;SDS011;6508;53.786;9.996;2023-04-15T12:28:44;10.80;;;9.90;;
12880;SDS011;6508;53.786;9.996;2023-04-15T12:31:12;11.30;;;10.35;;
12880;SDS011;6508;53.786;9.996;2023-04-15T12:33:41;13.55;;;10.88;;
12880;SDS011;6508;53.786;9.996;2023-04-15T12:36:10;11.27;;;10.38;;
12880;SDS011;6508;53.786;9.996;2023-04-15T12:38:38;12.82;;;11.38;;
12880;SDS011;6508;53.786;9.996;2023-04-15T12:41:06;12.30;;;11.23;;
12880;SDS011;6508;53.786;9.996;2023-04-15T12:43:34;12.32;;;11.20;;
12880;SDS011;6508;53.786;9.996;2023-04-15T12:46:02;12.52;;;11.43;;
12880;SDS011;6508;53.786;9.996;2023-04-15T12:48:30;12.50;;;11.43;;
12880;SDS011;6508;53.786;9.996;2023-04-15T12:50:58;12.73;;;11.43;;
12880;SDS011;6508;53.786;9.996;2023-04-15T12:53:28;13.35;;;12.15;;
12880;SDS011;6508;53.786;9.996;2023-04-15T12:55:56;13.02;;;11.77;;
12880;SDS011;6508;53.786;9.996;2023-04-15T12:58:24;11.35;;;10.35;;
12880;SDS011;6508;53.786;9.996;2023-04-15T13:00:52;12.40;;;11.38;;
12880;SDS011;6508;53.786;9.996;2023-04-15T13:03:20;12.70;;;11.60;;
12880;SDS011;6508;53.786;9.996;2023-04-15T13:05:48;12.38;;;11.18;;
12880;SDS011;6508;53.786;9.996;2023-04-15T13:08:17;12.18;;;11.07;;
12880;SDS011;6508;53.786;9.996;2023-04-15T13:10:46;11.85;;;10.85;;
12880;SDS011;6508;53.786;9.996;2023-04-15T13:13:14;12.25;;;11.25;;
12880;SDS011;6508;53.786;9.996;2023-04-15T13:15:42;12.43;;;11.23;;
12880;SDS011;6508;53.786;9.996;2023-04-15T13:18:11;11.65;;;10.55;;
12880;SDS011;6508;53.786;9.996;2023-04-15T13:20:39;11.27;;;10.25;;
12880;SDS011;6508;53.786;9.996;2023-04-15T13:23:07;11.38;;;10.43;;
12880;SDS011;6508;53.786;9.996;2023-04-15T13:25:36;11.32;;;10.32;;
12880;SDS011;6508;53.786;9.996;2023-04-15T13:28:05;11.55;;;10.50;;
12880;SDS011;6508;53.786;9.996;2023-04-15T13:30:33;10.88;;;10.07;;
12880;SDS011;6508;53.786;9.996;2023-04-15T13:33:01;11.00;;;10.00;;
12880;SDS011;6508;53.786;9.996;2023-04-15T13:35:29;11.88;;;10.57;;
12880;SDS011;6508;53.786;9.996;2023-04-15T13:37:58;10.43;;;9.48;;
12880;SDS011;6508;53.786;9.996;2023-04-15T13:40:26;11.10;;;10.18;;
12880;SDS011;6508;53.786;9.996;2023-04-15T13:42:54;11.98;;;10.98;;
12880;SDS011;6508;53.786;9.996;2023-04-15T13:45:24;12.23;;;11.13;;
12880;SDS011;6508;53.786;9.996;2023-04-15T13:47:52;11.68;;;10.57;;
12880;SDS011;6508;53.786;9.996;2023-04-15T13:50:20;10.80;;;9.98;;
12880;SDS011;6508;53.786;9.996;2023-04-15T13:52:48;10.85;;;9.95;;
12880;SDS011;6508;53.786;9.996;2023-04-15T13:55:16;11.15;;;10.25;;
12880;SDS011;6508;53.786;9.996;2023-04-15T13:57:47;11.40;;;10.50;;
12880;SDS011;6508;53.786;9.996;2023-04-15T14:00:15;11.80;;;10.65;;
12880;SDS011;6508;53.786;9.996;2023-04-15T14:02:44;10.82;;;10.00;;
12880;SDS011;6508;53.786;9.996;2023-04-15T14:05:12;12.05;;;11.02;;
12880;SDS011;6508;53.786;9.996;2023-04-15T14:07:40;10.18;;;9.30;;
12880;SDS011;6508;53.786;9.996;2023-04-15T14:10:08;11.63;;;10.48;;
12880;SDS011;6508;53.786;9.996;2023-04-15T14:12:36;10.75;;;9.85;;
12880;SDS011;6508;53.786;9.996;2023-04-15T14:15:04;10.32;;;9.43;;
12880;SDS011;6508;53.786;9.996;2023-04-15T14:17:32;10.10;;;9.20;;
12880;SDS011;6508;53.786;9.996;2023-04-15T14:20:02;9.80;;;9.00;;
12880;SDS011;6508;53.786;9.996;2023-04-15T14:22:30;10.32;;;9.50;;
12880;SDS011;6508;53.786;9.996;2023-04-15T14:24:58;10.30;;;9.48;;
12880;SDS011;6508;53.786;9.996;2023-04-15T14:27:26;11.27;;;10.27;;
12880;SDS011;6508;53.786;9.996;2023-04-15T14:29:54;11.00;;;10.00;;
12880;SDS011;6508;53.786;9.996;2023-04-15T14:32:23;11.10;;;10.20;;
12880;SDS011;6508;53.786;9.996;2023-04-15T14:34:51;9.80;;;8.95;;
12880;SDS011;6508;53.786;9.996;2023-04-15T14:37:20;9.20;;;8.48;;
12880;SDS011;6508;53.786;9.996;2023-04-15T14:39:48;10.00;;;9.15;;
12880;SDS011;6508;53.786;9.996;2023-04-15T14:42:16;10.70;;;9.95;;
12880;SDS011;6508;53.786;9.996;2023-04-15T14:44:44;13.18;;;12.02;;
12880;SDS011;6508;53.786;9.996;2023-04-15T14:47:12;14.07;;;12.68;;
12880;SDS011;6508;53.786;9.996;2023-04-15T14:49:39;15.20;;;13.60;;
12880;SDS011;6508;53.786;9.996;2023-04-15T14:52:07;14.48;;;13.15;;
12880;SDS011;6508;53.786;9.996;2023-04-15T14:54:36;14.88;;;13.57;;
12880;SDS011;6508;53.786;9.996;2023-04-15T14:57:04;14.40;;;13.00;;
12880;SDS011;6508;53.786;9.996;2023-04-15T14:59:34;14.38;;;13.07;;
12880;SDS011;6508;53.786;9.996;2023-04-15T15:02:01;13.80;;;12.48;;
12880;SDS011;6508;53.786;9.996;2023-04-15T15:04:29;14.35;;;12.95;;